Belle Mead, NJ (08502)

9:48 PM EST on January 27, 2015 (GMT -0500)
Willows Edge | Change Station
CLOSE
Current Station
Personal Weather Station
Location: Hillsborough, NJ
Elevation: 80 ft
Nearby Weather Stations

Elev 80 ft 40.48 °N, 74.62 °W | Updated 4 seconds ago

Partly Cloudy
Partly Cloudy
21.0 °F
Feels Like 10 °F
N
10.1
Wind Variable Wind from NNW
Gusts 14.1 mph

Today
High -- | Low -- °F
--% Chance of Precip.
Yesterday
High -- | Low -- °F
Precip. -- in
7:12 AM 5:10 PM
First Quarter, 60% visible
Pressure 29.83 in
Visibility 9.0 miles
Clouds Mostly Cloudy 12000 ft
Windchill 10 °F
Dew Point 7 °F
Humidity 54%
Rainfall 0.02 in
Snow Depth Not available.
UV 0 out of 12
Pollen .10 out of 12
Air Quality Not available.
Flu Activity Not available.
METAR KSMQ 280153Z AUTO 34013G22KT 9SM BKN120 M06/M14 A2981 RMK AO2 SLP099 T10561144 TSNO

More Conditions Fewer Conditions

Pressure 29.83 in
Visibility 9.0 miles
Clouds Mostly Cloudy 12000 ft
Windchill 10 °F
Dew Point 7 °F
Humidity 54%
Rainfall 0.02 in
Snow Depth Not available.
UV 0 out of 12
Pollen .10 out of 12
Air Quality Not available.
Flu Activity Not available.
METAR KSMQ 280153Z AUTO 34013G22KT 9SM BKN120 M06/M14 A2981 RMK AO2 SLP099 T10561144 TSNO

More Conditions Fewer Conditions

10-Day Weather Forecast

Almanac

Astronomy

Jan. 27, 2015 Rise Set
Actual Time
Civil Twilight
Nautical Twilight
Astronomical Twilight
Moon
Length of Visible Light
Length of Day
Tomorrow will be .
, % of the Moon is Illuminated

Today's Extremes

State Highs State Lows

Community

WunderPhotos

Upload Photos

1,791,060 photos uploaded!

WunderBlogs® & News

Nearby

Air Quality

  Air Quality AQ Index Pollutant
Not available.

Snow Depth

Station Depth Elevation

Earthquake Activity

City Distance Mag. Time & Date
Minimum magnitude displayed is 2.5.

Coastal Water Temperatures

Place Temperature

Nearby Weather Stations